createdAt,value
2023-02-09T00:02:19.199Z,15.75
2023-02-09T00:04:47.051Z,15.55
2023-02-09T00:07:15.576Z,12.23
2023-02-09T00:09:45.289Z,14.20
2023-02-09T00:12:31.174Z,12.55
2023-02-09T00:15:00.597Z,12.77
2023-02-09T00:17:29.656Z,12.85
2023-02-09T00:19:58.469Z,12.85
2023-02-09T00:22:26.393Z,13.35
2023-02-09T00:24:57.046Z,16.17
2023-02-09T00:27:25.834Z,13.48
2023-02-09T00:29:53.696Z,13.68
2023-02-09T00:32:22.866Z,18.13
2023-02-09T00:34:57.677Z,12.35
2023-02-09T00:37:26.139Z,13.75
2023-02-09T00:39:53.986Z,11.88
2023-02-09T00:42:21.854Z,13.10
2023-02-09T00:44:51.114Z,17.80
2023-02-09T00:47:19.602Z,16.70
2023-02-09T00:49:48.772Z,12.90
2023-02-09T00:52:18.066Z,15.50
2023-02-09T00:54:46.169Z,16.13
2023-02-09T00:57:15.234Z,16.90
2023-02-09T00:59:43.512Z,14.80
2023-02-09T01:02:11.528Z,14.73
2023-02-09T01:04:40.216Z,13.82
2023-02-09T01:07:09.625Z,17.00
2023-02-09T01:09:37.634Z,15.38
2023-02-09T01:12:08.586Z,12.75
2023-02-09T01:14:39.454Z,14.10
2023-02-09T01:17:09.834Z,12.60
2023-02-09T01:19:38.949Z,14.30
2023-02-09T01:22:09.216Z,16.23
2023-02-09T01:24:38.390Z,18.27
2023-02-09T01:27:06.254Z,14.40
2023-02-09T01:29:34.683Z,20.75
2023-02-09T01:32:05.164Z,15.52
2023-02-09T01:34:33.369Z,12.88
2023-02-09T01:37:03.593Z,16.40
2023-02-09T01:39:31.858Z,12.90
2023-02-09T01:42:03.654Z,15.50
2023-02-09T01:45:05.409Z,15.35
2023-02-09T01:47:34.604Z,16.70
2023-02-09T01:50:02.468Z,13.68
2023-02-09T01:52:30.791Z,16.13
2023-02-09T01:55:02.446Z,16.92
2023-02-09T01:57:35.217Z,12.85
2023-02-09T02:00:08.963Z,13.45
2023-02-09T02:02:43.268Z,17.13
2023-02-09T02:05:11.589Z,15.30
2023-02-09T02:07:43.444Z,14.52
2023-02-09T02:10:14.246Z,14.60
2023-02-09T02:12:44.169Z,13.43
2023-02-09T02:15:12.590Z,14.20
2023-02-09T02:17:52.670Z,14.30
2023-02-09T02:21:00.118Z,12.43
2023-02-09T02:23:32.013Z,12.70
2023-02-09T02:26:21.847Z,13.77
2023-02-09T02:29:13.114Z,16.08
2023-02-09T02:32:19.437Z,14.18
2023-02-09T02:34:53.256Z,13.40
2023-02-09T02:37:32.399Z,12.88
2023-02-09T02:40:04.769Z,13.35
2023-02-09T02:42:52.333Z,12.32
2023-02-09T02:45:28.923Z,12.73
2023-02-09T02:48:02.025Z,13.40
2023-02-09T02:50:32.344Z,12.75
2023-02-09T02:53:03.016Z,12.63
2023-02-09T02:55:32.785Z,13.93
2023-02-09T02:58:05.509Z,14.40
2023-02-09T03:00:36.975Z,16.02
2023-02-09T03:03:09.617Z,17.00
2023-02-09T03:05:40.664Z,15.98
2023-02-09T03:08:08.608Z,19.73
2023-02-09T03:10:38.472Z,14.18
2023-02-09T03:13:13.634Z,16.23
2023-02-09T03:15:50.173Z,14.48
2023-02-09T03:18:27.481Z,16.20
2023-02-09T03:20:58.925Z,14.77
2023-02-09T03:23:33.876Z,14.10
2023-02-09T03:26:08.160Z,18.40
2023-02-09T03:28:38.393Z,18.88
2023-02-09T03:31:06.565Z,15.30
2023-02-09T03:33:36.138Z,17.65
2023-02-09T03:36:09.149Z,18.55
2023-02-09T03:38:37.172Z,16.70
2023-02-09T03:41:07.777Z,12.80
2023-02-09T03:43:53.882Z,14.82
2023-02-09T03:46:22.019Z,10.88
2023-02-09T03:48:50.838Z,14.10
2023-02-09T03:51:20.394Z,17.15
2023-02-09T03:53:48.305Z,13.82
2023-02-09T03:56:16.322Z,20.80
2023-02-09T03:58:44.253Z,12.43
2023-02-09T04:01:14.973Z,13.32
2023-02-09T04:03:43.286Z,13.80
2023-02-09T04:06:12.533Z,15.10
2023-02-09T04:08:45.464Z,17.45
2023-02-09T04:11:13.416Z,14.20
2023-02-09T04:13:41.312Z,12.90
2023-02-09T04:16:09.847Z,16.10
2023-02-09T04:18:38.488Z,13.88
2023-02-09T04:21:06.897Z,16.67
2023-02-09T04:23:35.057Z,16.20
2023-02-09T04:26:04.564Z,15.55
2023-02-09T04:28:32.411Z,18.20
2023-02-09T04:31:01.734Z,17.20
2023-02-09T04:33:31.221Z,14.63
2023-02-09T04:35:59.244Z,22.65
2023-02-09T04:38:27.517Z,13.45
2023-02-09T04:40:58.974Z,14.80
2023-02-09T04:43:29.192Z,13.88
2023-02-09T04:45:57.096Z,15.07
2023-02-09T04:48:28.133Z,16.25
2023-02-09T04:50:58.642Z,15.55
2023-02-09T04:53:26.570Z,14.80
2023-02-09T04:55:58.632Z,13.85
2023-02-09T04:58:45.622Z,14.68
2023-02-09T05:01:16.356Z,13.23
2023-02-09T05:03:45.089Z,17.02
2023-02-09T05:06:13.103Z,18.17
2023-02-09T05:08:41.102Z,14.43
2023-02-09T05:11:08.958Z,17.30
2023-02-09T05:13:40.057Z,18.70
2023-02-09T05:16:08.918Z,21.50
2023-02-09T05:18:37.472Z,15.45
2023-02-09T05:21:05.698Z,16.20
2023-02-09T05:23:34.099Z,15.45
2023-02-09T05:26:02.109Z,17.75
2023-02-09T05:28:30.045Z,14.77
2023-02-09T05:31:00.445Z,17.23
2023-02-09T05:33:28.589Z,13.00
2023-02-09T05:35:59.074Z,17.52
2023-02-09T05:38:28.743Z,14.88
2023-02-09T05:40:57.727Z,15.38
2023-02-09T05:43:26.777Z,14.23
2023-02-09T05:45:54.997Z,20.00
2023-02-09T05:48:27.528Z,14.52
2023-02-09T05:50:55.950Z,16.67
2023-02-09T05:53:23.986Z,18.95
2023-02-09T05:55:51.854Z,18.70
2023-02-09T05:58:19.809Z,16.48
2023-02-09T06:00:47.897Z,14.20
2023-02-09T06:03:17.954Z,15.40
2023-02-09T06:05:47.731Z,16.70
2023-02-09T06:08:18.143Z,18.17
2023-02-09T06:10:46.182Z,13.02
2023-02-09T06:13:14.908Z,17.08
2023-02-09T06:15:42.843Z,17.35
2023-02-09T06:18:11.630Z,16.23
2023-02-09T06:20:41.116Z,16.73
2023-02-09T06:23:10.805Z,17.33
2023-02-09T06:25:39.951Z,15.10
2023-02-09T06:28:08.233Z,22.02
2023-02-09T06:30:36.305Z,18.98
2023-02-09T06:33:04.131Z,14.88
2023-02-09T06:35:32.175Z,15.18
2023-02-09T06:38:00.642Z,16.33
2023-02-09T06:40:30.581Z,15.68
2023-02-09T06:42:58.903Z,14.77
2023-02-09T06:45:26.817Z,24.35
2023-02-09T06:47:54.881Z,19.95
2023-02-09T06:50:22.964Z,17.63
2023-02-09T06:52:51.288Z,17.10
2023-02-09T06:55:19.266Z,15.88
2023-02-09T06:57:49.568Z,16.98
2023-02-09T07:00:18.866Z,18.83
2023-02-09T07:02:47.637Z,22.15
2023-02-09T07:05:19.173Z,17.15
2023-02-09T07:07:50.041Z,17.05
2023-02-09T07:10:19.635Z,16.30
2023-02-09T07:12:48.945Z,17.35
2023-02-09T07:15:16.969Z,20.85
2023-02-09T07:17:44.826Z,21.27
2023-02-09T07:20:14.528Z,21.33
2023-02-09T07:22:42.583Z,16.98
2023-02-09T07:25:11.107Z,15.27
2023-02-09T07:27:39.192Z,19.35
2023-02-09T07:30:10.376Z,15.27
2023-02-09T07:32:38.876Z,18.55
2023-02-09T07:35:07.612Z,19.55
2023-02-09T07:37:36.320Z,17.17
2023-02-09T07:40:04.958Z,17.40
2023-02-09T07:42:32.799Z,31.35
2023-02-09T07:45:03.644Z,19.75
2023-02-09T07:47:32.792Z,17.35
2023-02-09T07:50:00.959Z,20.05
2023-02-09T07:52:28.923Z,20.25
2023-02-09T07:54:56.757Z,18.95
2023-02-09T07:57:25.399Z,25.42
2023-02-09T07:59:53.629Z,36.95
2023-02-09T08:02:28.008Z,57.53
2023-02-09T08:05:00.603Z,78.93
2023-02-09T08:07:28.922Z,81.47
2023-02-09T08:09:57.475Z,75.47
2023-02-09T08:12:48.637Z,70.72
2023-02-09T08:15:18.123Z,62.58
2023-02-09T08:17:46.032Z,58.08
2023-02-09T08:20:17.906Z,49.42
2023-02-09T08:22:50.661Z,46.22
2023-02-09T08:25:21.527Z,46.20
2023-02-09T08:27:49.856Z,39.67
2023-02-09T08:30:18.923Z,37.00
2023-02-09T08:32:46.662Z,30.75
2023-02-09T08:35:17.006Z,26.85
2023-02-09T08:37:44.976Z,31.55
2023-02-09T08:40:14.957Z,28.83
2023-02-09T08:42:42.975Z,27.63
2023-02-09T08:45:11.329Z,28.42
2023-02-09T08:47:40.057Z,25.23
2023-02-09T08:50:08.199Z,24.02
2023-02-09T08:52:41.093Z,28.77
2023-02-09T08:55:10.538Z,29.27
2023-02-09T08:57:43.918Z,28.58
2023-02-09T09:00:13.987Z,27.50
2023-02-09T09:02:42.074Z,28.45
2023-02-09T09:05:09.988Z,29.65
2023-02-09T09:07:39.397Z,30.58
2023-02-09T09:10:09.287Z,29.90
2023-02-09T09:12:37.807Z,33.47
2023-02-09T09:15:06.871Z,28.45
2023-02-09T09:17:35.008Z,30.38
2023-02-09T09:20:07.124Z,29.17
2023-02-09T09:22:35.040Z,25.90
2023-02-09T09:25:07.019Z,28.65
2023-02-09T09:27:36.171Z,30.15
2023-02-09T09:30:05.804Z,32.83
2023-02-09T09:32:33.816Z,21.85
2023-02-09T09:35:03.416Z,26.75
2023-02-09T09:37:34.282Z,27.90
2023-02-09T09:40:02.120Z,26.73
2023-02-09T09:42:35.629Z,20.38
2023-02-09T09:45:04.858Z,19.23
2023-02-09T09:47:36.243Z,21.52
2023-02-09T09:50:07.716Z,20.30
2023-02-09T09:52:40.192Z,20.48
2023-02-09T09:55:09.655Z,22.75
2023-02-09T09:57:43.668Z,38.20
2023-02-09T10:00:18.767Z,26.75
2023-02-09T10:02:47.030Z,19.23
2023-02-09T10:05:19.736Z,22.83
2023-02-09T10:07:54.969Z,22.90
2023-02-09T10:10:34.366Z,20.00
2023-02-09T10:13:05.016Z,22.10
2023-02-09T10:15:35.139Z,25.85
2023-02-09T10:18:03.955Z,21.15
2023-02-09T10:20:48.331Z,18.52
2023-02-09T10:25:59.904Z,19.45
2023-02-09T10:28:31.106Z,19.60
2023-02-09T10:31:01.070Z,19.20
2023-02-09T10:33:30.523Z,17.38
2023-02-09T10:36:01.101Z,23.02
2023-02-09T10:38:33.583Z,23.10
2023-02-09T10:41:04.436Z,27.30
2023-02-09T10:43:35.297Z,19.30
2023-02-09T10:46:05.618Z,17.40
2023-02-09T10:48:42.424Z,18.50
2023-02-09T10:51:16.427Z,23.33
2023-02-09T10:56:26.912Z,19.17
2023-02-09T10:59:03.667Z,20.60
2023-02-09T11:01:34.348Z,23.55
2023-02-09T11:04:04.079Z,20.60
2023-02-09T11:06:36.803Z,21.17
2023-02-09T11:09:12.705Z,23.50
2023-02-09T11:11:44.813Z,22.52
2023-02-09T11:14:15.790Z,22.00
2023-02-09T11:17:16.228Z,23.20
2023-02-09T11:20:04.078Z,26.80
2023-02-09T11:22:55.184Z,20.83
2023-02-09T11:25:27.254Z,24.05
2023-02-09T11:28:03.616Z,18.25
2023-02-09T11:30:57.385Z,26.10
2023-02-09T11:33:28.730Z,23.73
2023-02-09T11:36:03.912Z,26.80
2023-02-09T11:38:36.935Z,29.98
2023-02-09T11:41:26.070Z,28.48
2023-02-09T11:43:54.574Z,21.98
2023-02-09T11:46:27.257Z,26.38
2023-02-09T11:48:59.552Z,21.27
2023-02-09T11:51:27.571Z,22.77
2023-02-09T11:54:00.771Z,25.23
2023-02-09T11:56:29.583Z,25.40
2023-02-09T11:59:01.186Z,28.73
2023-02-09T12:01:38.158Z,25.50
2023-02-09T12:04:15.525Z,27.88
2023-02-09T12:06:47.904Z,32.88
2023-02-09T12:09:28.136Z,23.50
2023-02-09T12:12:05.242Z,26.15
2023-02-09T12:14:58.300Z,29.20
2023-02-09T12:17:33.230Z,24.30
2023-02-09T12:20:04.726Z,22.67
2023-02-09T12:22:52.378Z,20.70
2023-02-09T12:25:25.615Z,31.63
2023-02-09T12:28:13.152Z,42.92
2023-02-09T12:31:03.742Z,38.15
2023-02-09T12:33:35.875Z,28.38
2023-02-09T12:36:06.334Z,27.48
2023-02-09T12:38:50.478Z,27.58
2023-02-09T12:41:21.385Z,28.67
2023-02-09T12:43:49.451Z,34.25
2023-02-09T12:46:21.044Z,22.33
2023-02-09T12:49:08.416Z,31.08
2023-02-09T12:51:48.994Z,27.13
2023-02-09T12:54:36.147Z,26.08
2023-02-09T12:57:53.821Z,23.10
2023-02-09T13:00:50.107Z,26.13
2023-02-09T13:03:22.053Z,23.92
2023-02-09T13:05:51.512Z,25.65
2023-02-09T13:08:40.207Z,33.17
2023-02-09T13:11:19.772Z,26.92
2023-02-09T13:13:50.904Z,27.17
2023-02-09T13:16:38.192Z,29.27
2023-02-09T13:19:18.139Z,25.02
2023-02-09T13:21:57.687Z,27.27
2023-02-09T13:24:36.052Z,33.35
2023-02-09T13:27:04.201Z,29.10
2023-02-09T13:29:32.792Z,32.45
2023-02-09T13:32:10.608Z,25.75
2023-02-09T13:34:41.274Z,26.92
2023-02-09T13:37:20.955Z,34.30
2023-02-09T13:39:55.082Z,38.72
2023-02-09T13:44:52.471Z,36.20
2023-02-09T13:47:20.441Z,35.88
2023-02-09T13:49:59.992Z,29.85
2023-02-09T13:52:35.298Z,34.20
2023-02-09T13:55:12.971Z,33.85
2023-02-09T13:57:42.775Z,31.98
2023-02-09T14:00:19.694Z,30.67
2023-02-09T14:02:53.220Z,28.70
2023-02-09T14:05:29.636Z,28.50
2023-02-09T14:07:59.237Z,26.70
2023-02-09T14:10:28.293Z,49.45
2023-02-09T14:12:59.946Z,32.72
2023-02-09T14:15:52.080Z,40.20
2023-02-09T14:18:31.491Z,29.38
2023-02-09T14:21:01.528Z,33.08
2023-02-09T14:23:34.440Z,34.00
2023-02-09T14:26:09.988Z,35.33
2023-02-09T14:28:38.557Z,29.63
2023-02-09T14:31:07.379Z,34.03
2023-02-09T14:33:38.767Z,30.20
2023-02-09T14:36:07.657Z,32.90
2023-02-09T14:38:38.800Z,35.80
2023-02-09T14:41:29.733Z,35.78
2023-02-09T14:44:00.435Z,32.15
2023-02-09T14:46:28.750Z,30.48
2023-02-09T14:48:57.509Z,31.05
2023-02-09T14:51:27.849Z,32.97
2023-02-09T14:54:01.511Z,28.98
2023-02-09T14:56:33.765Z,35.80
2023-02-09T14:59:01.468Z,31.45
2023-02-09T15:01:29.483Z,28.08
2023-02-09T15:03:57.313Z,29.83
2023-02-09T15:06:29.038Z,29.45
2023-02-09T15:08:58.447Z,35.92
2023-02-09T15:11:44.058Z,39.70
2023-02-09T15:14:12.214Z,44.25
2023-02-09T15:16:40.174Z,36.00
2023-02-09T15:19:11.995Z,41.28
2023-02-09T15:21:40.377Z,36.28
2023-02-09T15:24:10.287Z,39.03
2023-02-09T15:26:38.577Z,32.13
2023-02-09T15:29:12.038Z,36.03
2023-02-09T15:31:39.963Z,33.63
2023-02-09T15:34:08.470Z,35.08
2023-02-09T15:36:37.171Z,41.25
2023-02-09T15:39:11.589Z,36.75
2023-02-09T15:41:56.890Z,35.10
2023-02-09T15:44:42.128Z,35.60
2023-02-09T15:47:27.360Z,39.40
2023-02-09T15:49:55.386Z,38.25
2023-02-09T15:52:24.488Z,35.97
2023-02-09T15:54:54.198Z,40.35
2023-02-09T15:57:22.045Z,40.38
2023-02-09T15:59:51.805Z,50.05
2023-02-09T16:02:20.144Z,43.10
2023-02-09T16:04:49.164Z,35.47
2023-02-09T16:07:27.167Z,38.67
2023-02-09T16:09:56.316Z,35.58
2023-02-09T16:12:24.346Z,39.55
2023-02-09T16:14:53.334Z,36.33
2023-02-09T16:17:21.356Z,39.55
2023-02-09T16:19:49.401Z,54.80
2023-02-09T16:22:17.196Z,41.85
2023-02-09T16:24:46.306Z,44.30
2023-02-09T16:27:17.171Z,48.50
2023-02-09T16:29:45.169Z,41.75
2023-02-09T16:32:16.238Z,35.38
2023-02-09T16:34:44.300Z,42.38
2023-02-09T16:37:16.102Z,53.05
2023-02-09T16:39:45.189Z,44.53
2023-02-09T16:42:15.810Z,40.83
2023-02-09T16:44:44.173Z,41.03
2023-02-09T16:47:18.765Z,40.33
2023-02-09T16:49:50.205Z,71.43
2023-02-09T16:52:20.259Z,50.85
2023-02-09T16:54:49.737Z,45.47
2023-02-09T16:57:21.118Z,43.90
2023-02-09T16:59:49.283Z,42.03
2023-02-09T17:02:29.747Z,47.03
2023-02-09T17:04:58.528Z,48.17
2023-02-09T17:07:30.622Z,42.60
2023-02-09T17:10:00.052Z,44.42
2023-02-09T17:12:30.854Z,39.92
2023-02-09T17:14:58.533Z,39.25
2023-02-09T17:17:26.405Z,40.53
2023-02-09T17:19:55.226Z,44.28
2023-02-09T17:22:23.884Z,42.05
2023-02-09T17:24:51.759Z,43.97
2023-02-09T17:27:19.586Z,48.47
2023-02-09T17:29:49.140Z,46.08
2023-02-09T17:32:17.673Z,46.42
2023-02-09T17:34:45.589Z,45.45
2023-02-09T17:37:15.346Z,46.75
2023-02-09T17:39:43.530Z,50.30
2023-02-09T17:42:22.163Z,48.65
2023-02-09T17:44:52.186Z,44.83
2023-02-09T17:47:21.013Z,49.38
2023-02-09T17:49:49.019Z,50.17
2023-02-09T17:52:18.038Z,44.50
2023-02-09T17:54:46.564Z,56.28
2023-02-09T17:57:17.980Z,51.22
2023-02-09T17:59:46.124Z,51.72
2023-02-09T18:02:17.807Z,52.50
2023-02-09T18:04:45.970Z,41.20
2023-02-09T18:07:14.559Z,43.53
2023-02-09T18:09:43.675Z,43.60
2023-02-09T18:12:16.372Z,49.58
2023-02-09T18:14:46.241Z,58.75
2023-02-09T18:17:16.660Z,49.03
2023-02-09T18:19:45.102Z,42.97
2023-02-09T18:22:17.013Z,40.28
2023-02-09T18:24:48.321Z,50.72
2023-02-09T18:27:18.577Z,53.63
2023-02-09T18:29:46.502Z,42.33
2023-02-09T18:32:17.135Z,54.25
2023-02-09T18:34:44.926Z,47.92
2023-02-09T18:37:14.898Z,48.97
2023-02-09T18:39:46.924Z,49.97
2023-02-09T18:42:16.558Z,49.15
2023-02-09T18:44:44.633Z,47.35
2023-02-09T18:47:12.824Z,50.22
2023-02-09T18:49:42.669Z,56.78
2023-02-09T18:52:10.677Z,47.40
2023-02-09T18:54:38.471Z,54.67
2023-02-09T18:57:06.357Z,59.05
2023-02-09T18:59:34.483Z,53.63
2023-02-09T19:02:02.642Z,54.90
2023-02-09T19:04:30.597Z,53.50
2023-02-09T19:06:59.906Z,53.67
2023-02-09T19:09:29.470Z,55.92
2023-02-09T19:11:58.238Z,53.50
2023-02-09T19:14:38.954Z,54.03
2023-02-09T19:17:10.798Z,59.95
2023-02-09T19:19:39.025Z,50.58
2023-02-09T19:22:10.257Z,55.05
2023-02-09T19:24:38.381Z,52.78
2023-02-09T19:27:09.569Z,59.08
2023-02-09T19:29:39.079Z,51.78
2023-02-09T19:32:06.990Z,52.50
2023-02-09T19:34:37.130Z,58.10
2023-02-09T19:37:05.580Z,58.30
2023-02-09T19:39:38.410Z,61.63
2023-02-09T19:42:08.127Z,57.08
2023-02-09T19:44:37.094Z,58.78
2023-02-09T19:47:06.370Z,61.33
2023-02-09T19:49:34.499Z,55.65
2023-02-09T19:52:02.361Z,57.85
2023-02-09T19:54:31.996Z,60.05
2023-02-09T19:57:04.495Z,63.95
2023-02-09T19:59:32.558Z,59.80
2023-02-09T20:02:00.548Z,65.30
2023-02-09T20:04:28.769Z,72.28
2023-02-09T20:06:57.921Z,79.78
2023-02-09T20:09:26.271Z,62.80
2023-02-09T20:14:31.564Z,56.88
2023-02-09T20:17:01.096Z,55.28
2023-02-09T20:19:29.279Z,54.72
2023-02-09T20:21:57.637Z,56.15
2023-02-09T20:24:25.516Z,57.05
2023-02-09T20:26:53.532Z,66.88
2023-02-09T20:29:22.833Z,62.58
2023-02-09T20:31:52.716Z,75.65
2023-02-09T20:34:20.718Z,80.72
2023-02-09T20:36:50.597Z,61.28
2023-02-09T20:39:22.906Z,62.38
2023-02-09T20:42:12.706Z,64.47
2023-02-09T20:44:58.191Z,57.47
2023-02-09T20:47:27.378Z,53.95
2023-02-09T20:49:57.474Z,58.20
2023-02-09T20:52:25.822Z,57.58
2023-02-09T20:54:54.343Z,72.75
2023-02-09T20:57:23.987Z,62.03
2023-02-09T20:59:52.034Z,65.82
2023-02-09T21:02:20.213Z,61.38
2023-02-09T21:04:49.542Z,55.35
2023-02-09T21:07:20.274Z,55.55
2023-02-09T21:09:48.799Z,51.65
2023-02-09T21:12:16.561Z,53.28
2023-02-09T21:14:46.552Z,58.03
2023-02-09T21:17:15.121Z,47.63
2023-02-09T21:19:43.549Z,48.63
2023-02-09T21:22:13.022Z,54.15
2023-02-09T21:24:42.012Z,58.40
2023-02-09T21:27:10.223Z,58.47
2023-02-09T21:29:38.681Z,48.60
2023-02-09T21:32:08.204Z,48.47
2023-02-09T21:34:36.320Z,62.00
2023-02-09T21:37:07.854Z,51.28
2023-02-09T21:39:37.233Z,56.03
2023-02-09T21:42:22.754Z,55.78
2023-02-09T21:44:52.305Z,54.53
2023-02-09T21:47:20.439Z,58.13
2023-02-09T21:49:48.461Z,57.25
2023-02-09T21:52:16.356Z,60.80
2023-02-09T21:54:46.147Z,59.72
2023-02-09T21:57:13.922Z,59.03
2023-02-09T21:59:42.427Z,54.17
2023-02-09T22:02:13.881Z,52.70
2023-02-09T22:04:41.719Z,47.97
2023-02-09T22:07:10.167Z,56.75
2023-02-09T22:09:38.537Z,46.92
2023-02-09T22:12:08.899Z,52.85
2023-02-09T22:14:36.973Z,53.97
2023-02-09T22:17:04.845Z,51.30
2023-02-09T22:19:33.838Z,51.03
2023-02-09T22:22:01.946Z,52.05
2023-02-09T22:24:30.128Z,50.20
2023-02-09T22:26:59.259Z,53.53
2023-02-09T22:29:30.072Z,50.17
2023-02-09T22:31:59.193Z,53.72
2023-02-09T22:34:27.084Z,51.15
2023-02-09T22:36:55.125Z,56.70
2023-02-09T22:39:23.282Z,52.25
2023-02-09T22:41:51.477Z,60.72
2023-02-09T22:44:19.324Z,57.58
2023-02-09T22:46:48.672Z,55.65
2023-02-09T22:49:18.322Z,49.08
2023-02-09T22:51:48.218Z,57.05
2023-02-09T22:54:17.957Z,54.83
2023-02-09T22:56:46.336Z,52.40
2023-02-09T22:59:17.460Z,51.75
2023-02-09T23:01:45.419Z,49.00
2023-02-09T23:04:14.775Z,47.15
2023-02-09T23:06:42.650Z,52.97
2023-02-09T23:09:11.566Z,43.95
2023-02-09T23:11:39.680Z,47.90
2023-02-09T23:14:10.160Z,46.15
2023-02-09T23:16:40.261Z,49.95
2023-02-09T23:19:09.888Z,45.22
2023-02-09T23:21:40.703Z,47.50
2023-02-09T23:24:09.640Z,46.75
2023-02-09T23:26:38.319Z,50.58
2023-02-09T23:29:08.343Z,51.03
2023-02-09T23:31:36.880Z,49.63
2023-02-09T23:34:05.526Z,53.67
2023-02-09T23:36:34.914Z,43.60
2023-02-09T23:39:06.547Z,48.65
2023-02-09T23:41:34.916Z,43.33
2023-02-09T23:44:03.903Z,42.55
2023-02-09T23:46:31.956Z,45.00
2023-02-09T23:49:00.035Z,41.20
2023-02-09T23:51:29.809Z,49.10
2023-02-09T23:53:58.792Z,42.88
2023-02-09T23:56:28.584Z,45.97
2023-02-09T23:58:57.021Z,47.55
